Portada
METAR-TAF:

METAR-TAF

Aeropuertos :

Jartum, Sudán

Aeropuerto Internacional de Jartum

latitud: 15-36N, longitud: 032-33E, altitud: 382 m

Observación

El informe se hizo hace 34 minutos, a las 07:30 UTC
Viento 11 kt del oeste
Temperatura 34°C
Humedad 41%
Presión 1012 hPa
Visibilidad 10 km o más
Escasas nubes a una altura de 5000 ft

METAR: HSSS 200730Z 26011KT 9999 FEW050 34/19 Q1012 NOSIG

Hora: 11:04 (08:04 UTC)

Pronóstico

El informe se hizo hace 3 horas y 4 minutos, a las 05:00 UTC
Pronóstico válido del 20 a las 06 UTC al 21 a las 12 UTC
Viento 6 kt del suroeste con ráfagas de 16 kt
Visibilidad 10 km o más
Nubes dispersas a una altura de 14000 ft
Temporalmente
del 20 a las 06 UTC al 20 a las 09 UTC
Visibilidad: 6000 m

TAF: HSSS 200500Z 2006/2112 22006G16KT 9999 SCT140 TEMPO 2006/2009 6000

Observaciones y pronósticos meteorológicos de más de 4000 aeropuertos (mensajes METAR y TAF).

Los puntos amarillos y rojos representan las estaciones disponibles.

Ponga el ratón en el punto deseado para ver el nombre de la estación.

Haga clic para ver las observaciones y los pronósticos meteorológicos.

Para cambiar el mapa : haga clic en los botones verdes con una cruz de color negro para hacer un zoom, en el botón verde con un guión para alejar o en las flechas verdes para mapas adyacentes.


METAR-TAF: